sensor_id;sensor_type;location;lat;lon;timestamp;temperature;humidity
8666;DHT22;4370;48.916;8.380;2023-06-14T00:01:44;11.90;78.90
8666;DHT22;4370;48.916;8.380;2023-06-14T00:04:13;11.60;79.90
8666;DHT22;4370;48.916;8.380;2023-06-14T00:06:42;11.80;80.20
8666;DHT22;4370;48.916;8.380;2023-06-14T00:09:10;11.60;79.40
8666;DHT22;4370;48.916;8.380;2023-06-14T00:16:30;11.20;80.60
8666;DHT22;4370;48.916;8.380;2023-06-14T00:18:55;11.50;80.90
8666;DHT22;4370;48.916;8.380;2023-06-14T00:23:47;11.20;81.40
8666;DHT22;4370;48.916;8.380;2023-06-14T00:26:13;11.40;82.10
8666;DHT22;4370;48.916;8.380;2023-06-14T00:28:38;11.10;82.60
8666;DHT22;4370;48.916;8.380;2023-06-14T00:31:04;11.00;83.10
8666;DHT22;4370;48.916;8.380;2023-06-14T00:33:29;11.00;83.20
8666;DHT22;4370;48.916;8.380;2023-06-14T00:35:55;11.30;84.70
8666;DHT22;4370;48.916;8.380;2023-06-14T00:43:13;10.80;86.10
8666;DHT22;4370;48.916;8.380;2023-06-14T00:48:05;10.90;63.40
8666;DHT22;4370;48.916;8.380;2023-06-14T00:50:32;11.20;85.50
8666;DHT22;4370;48.916;8.380;2023-06-14T00:53:00;10.70;85.20
8666;DHT22;4370;48.916;8.380;2023-06-14T00:55:26;11.10;85.00
8666;DHT22;4370;48.916;8.380;2023-06-14T00:57:54;10.90;86.10
8666;DHT22;4370;48.916;8.380;2023-06-14T01:00:19;11.10;64.30
8666;DHT22;4370;48.916;8.380;2023-06-14T01:02:45;11.20;85.60
8666;DHT22;4370;48.916;8.380;2023-06-14T01:05:11;10.60;85.60
8666;DHT22;4370;48.916;8.380;2023-06-14T01:08:13;10.80;86.00
8666;DHT22;4370;48.916;8.380;2023-06-14T01:13:35;10.90;81.00
8666;DHT22;4370;48.916;8.380;2023-06-14T01:16:02;10.30;88.00
8666;DHT22;4370;48.916;8.380;2023-06-14T01:18:28;10.50;66.60
8666;DHT22;4370;48.916;8.380;2023-06-14T01:20:55;10.50;88.80
8666;DHT22;4370;48.916;8.380;2023-06-14T01:23:22;10.20;89.40
8666;DHT22;4370;48.916;8.380;2023-06-14T01:25:49;10.60;91.00
8666;DHT22;4370;48.916;8.380;2023-06-14T01:28:19;10.20;90.70
8666;DHT22;4370;48.916;8.380;2023-06-14T01:30:48;10.00;90.80
8666;DHT22;4370;48.916;8.380;2023-06-14T01:33:17;10.50;91.20
8666;DHT22;4370;48.916;8.380;2023-06-14T01:35:45;10.40;79.50
8666;DHT22;4370;48.916;8.380;2023-06-14T01:38:15;10.30;91.20
8666;DHT22;4370;48.916;8.380;2023-06-14T01:40:44;10.00;71.00
8666;DHT22;4370;48.916;8.380;2023-06-14T01:43:12;10.60;77.70
8666;DHT22;4370;48.916;8.380;2023-06-14T01:45:41;9.70;72.20
8666;DHT22;4370;48.916;8.380;2023-06-14T01:48:08;10.60;91.70
8666;DHT22;4370;48.916;8.380;2023-06-14T01:50:34;10.20;91.70
8666;DHT22;4370;48.916;8.380;2023-06-14T01:55:26;10.60;91.90
8666;DHT22;4370;48.916;8.380;2023-06-14T01:57:52;10.20;91.90
8666;DHT22;4370;48.916;8.380;2023-06-14T02:00:18;10.50;91.90
8666;DHT22;4370;48.916;8.380;2023-06-14T02:02:45;10.30;91.60
8666;DHT22;4370;48.916;8.380;2023-06-14T02:05:11;10.70;91.90
8666;DHT22;4370;48.916;8.380;2023-06-14T02:07:37;10.60;91.70
8666;DHT22;4370;48.916;8.380;2023-06-14T02:10:04;11.00;92.20
8666;DHT22;4370;48.916;8.380;2023-06-14T02:12:29;10.40;86.70
8666;DHT22;4370;48.916;8.380;2023-06-14T02:14:55;10.80;91.30
8666;DHT22;4370;48.916;8.380;2023-06-14T02:17:22;10.70;90.70
8666;DHT22;4370;48.916;8.380;2023-06-14T02:19:47;10.80;90.60
8666;DHT22;4370;48.916;8.380;2023-06-14T02:22:14;11.30;90.70
8666;DHT22;4370;48.916;8.380;2023-06-14T02:24:41;11.20;69.70
8666;DHT22;4370;48.916;8.380;2023-06-14T02:27:07;11.40;89.20
8666;DHT22;4370;48.916;8.380;2023-06-14T02:29:35;11.60;88.70
8666;DHT22;4370;48.916;8.380;2023-06-14T02:32:01;11.50;87.60
8666;DHT22;4370;48.916;8.380;2023-06-14T02:34:26;11.30;87.30
8666;DHT22;4370;48.916;8.380;2023-06-14T02:36:52;11.50;87.30
8666;DHT22;4370;48.916;8.380;2023-06-14T02:39:18;11.80;88.30
8666;DHT22;4370;48.916;8.380;2023-06-14T02:41:46;11.80;88.30
8666;DHT22;4370;48.916;8.380;2023-06-14T02:44:13;11.60;66.00
8666;DHT22;4370;48.916;8.380;2023-06-14T02:49:05;11.20;90.00
8666;DHT22;4370;48.916;8.380;2023-06-14T02:51:30;11.60;89.60
8666;DHT22;4370;48.916;8.380;2023-06-14T02:53:56;11.10;90.00
8666;DHT22;4370;48.916;8.380;2023-06-14T02:56:21;11.00;89.80
8666;DHT22;4370;48.916;8.380;2023-06-14T02:58:48;11.30;90.60
8666;DHT22;4370;48.916;8.380;2023-06-14T03:01:14;11.50;77.70
8666;DHT22;4370;48.916;8.380;2023-06-14T03:06:06;11.30;90.60
8666;DHT22;4370;48.916;8.380;2023-06-14T03:08:33;10.80;90.20
8666;DHT22;4370;48.916;8.380;2023-06-14T03:11:04;11.10;90.80
8666;DHT22;4370;48.916;8.380;2023-06-14T03:13:36;10.80;82.90
8666;DHT22;4370;48.916;8.380;2023-06-14T03:16:02;10.90;90.10
8666;DHT22;4370;48.916;8.380;2023-06-14T03:18:29;11.00;69.30
8666;DHT22;4370;48.916;8.380;2023-06-14T03:20:56;10.90;91.90
8666;DHT22;4370;48.916;8.380;2023-06-14T03:23:24;10.80;91.90
8666;DHT22;4370;48.916;8.380;2023-06-14T03:25:52;10.70;91.40
8666;DHT22;4370;48.916;8.380;2023-06-14T03:28:19;10.50;91.20
8666;DHT22;4370;48.916;8.380;2023-06-14T03:30:45;10.60;91.70
8666;DHT22;4370;48.916;8.380;2023-06-14T03:38:03;10.50;92.40
8666;DHT22;4370;48.916;8.380;2023-06-14T03:40:29;10.30;92.40
8666;DHT22;4370;48.916;8.380;2023-06-14T03:42:55;10.50;84.10
8666;DHT22;4370;48.916;8.380;2023-06-14T03:45:20;10.50;92.30
8666;DHT22;4370;48.916;8.380;2023-06-14T03:47:46;10.40;92.10
8666;DHT22;4370;48.916;8.380;2023-06-14T03:50:12;10.70;92.10
8666;DHT22;4370;48.916;8.380;2023-06-14T03:55:04;10.40;91.80
8666;DHT22;4370;48.916;8.380;2023-06-14T03:57:30;10.70;90.90
8666;DHT22;4370;48.916;8.380;2023-06-14T03:59:56;10.70;90.50
8666;DHT22;4370;48.916;8.380;2023-06-14T04:04:48;11.50;90.50
8666;DHT22;4370;48.916;8.380;2023-06-14T04:07:17;10.90;89.70
8666;DHT22;4370;48.916;8.380;2023-06-14T04:09:46;11.60;89.00
8666;DHT22;4370;48.916;8.380;2023-06-14T04:12:12;11.30;88.80
8666;DHT22;4370;48.916;8.380;2023-06-14T04:14:38;11.50;67.00
8666;DHT22;4370;48.916;8.380;2023-06-14T04:17:05;11.80;87.60
8666;DHT22;4370;48.916;8.380;2023-06-14T04:19:30;11.60;65.90
8666;DHT22;4370;48.916;8.380;2023-06-14T04:21:56;11.80;86.90
8666;DHT22;4370;48.916;8.380;2023-06-14T04:24:22;11.90;87.20
8666;DHT22;4370;48.916;8.380;2023-06-14T04:26:49;12.10;86.90
8666;DHT22;4370;48.916;8.380;2023-06-14T04:29:15;12.10;86.10
8666;DHT22;4370;48.916;8.380;2023-06-14T04:31:45;11.80;85.40
8666;DHT22;4370;48.916;8.380;2023-06-14T04:34:11;12.00;85.70
8666;DHT22;4370;48.916;8.380;2023-06-14T04:36:42;12.50;85.90
8666;DHT22;4370;48.916;8.380;2023-06-14T04:39:18;12.30;85.90
8666;DHT22;4370;48.916;8.380;2023-06-14T04:41:44;12.30;84.80
8666;DHT22;4370;48.916;8.380;2023-06-14T04:44:10;12.40;85.90
8666;DHT22;4370;48.916;8.380;2023-06-14T04:46:38;12.60;64.30
8666;DHT22;4370;48.916;8.380;2023-06-14T04:49:14;13.10;85.40
8666;DHT22;4370;48.916;8.380;2023-06-14T04:51:42;13.40;83.00
8666;DHT22;4370;48.916;8.380;2023-06-14T04:54:09;13.20;62.40
8666;DHT22;4370;48.916;8.380;2023-06-14T04:56:41;13.40;83.20
8666;DHT22;4370;48.916;8.380;2023-06-14T04:59:11;13.50;83.20
8666;DHT22;4370;48.916;8.380;2023-06-14T05:01:36;13.70;61.40
8666;DHT22;4370;48.916;8.380;2023-06-14T05:04:02;13.80;61.00
8666;DHT22;4370;48.916;8.380;2023-06-14T05:06:28;13.90;60.80
8666;DHT22;4370;48.916;8.380;2023-06-14T05:08:54;14.10;60.50
8666;DHT22;4370;48.916;8.380;2023-06-14T05:11:20;14.30;60.20
8666;DHT22;4370;48.916;8.380;2023-06-14T05:13:46;14.40;59.80
8666;DHT22;4370;48.916;8.380;2023-06-14T05:16:12;14.40;59.30
8666;DHT22;4370;48.916;8.380;2023-06-14T05:18:38;14.80;59.20
8666;DHT22;4370;48.916;8.380;2023-06-14T05:21:05;15.00;59.60
8666;DHT22;4370;48.916;8.380;2023-06-14T05:23:31;15.10;58.80
8666;DHT22;4370;48.916;8.380;2023-06-14T05:25:56;15.20;58.80
8666;DHT22;4370;48.916;8.380;2023-06-14T05:28:23;15.40;58.70
8666;DHT22;4370;48.916;8.380;2023-06-14T05:30:48;15.50;58.80
8666;DHT22;4370;48.916;8.380;2023-06-14T05:33:14;15.60;59.80
8666;DHT22;4370;48.916;8.380;2023-06-14T05:35:39;15.80;59.00
8666;DHT22;4370;48.916;8.380;2023-06-14T05:38:05;16.10;58.10
8666;DHT22;4370;48.916;8.380;2023-06-14T05:40:33;16.40;56.80
8666;DHT22;4370;48.916;8.380;2023-06-14T05:42:59;16.50;55.40
8666;DHT22;4370;48.916;8.380;2023-06-14T05:45:25;17.80;54.60
8666;DHT22;4370;48.916;8.380;2023-06-14T05:47:51;17.90;52.40
8666;DHT22;4370;48.916;8.380;2023-06-14T05:50:17;18.80;50.70
8666;DHT22;4370;48.916;8.380;2023-06-14T05:52:44;19.50;48.50
8666;DHT22;4370;48.916;8.380;2023-06-14T05:55:10;21.30;46.50
8666;DHT22;4370;48.916;8.380;2023-06-14T05:57:38;22.60;43.40
8666;DHT22;4370;48.916;8.380;2023-06-14T06:00:05;24.00;41.10
8666;DHT22;4370;48.916;8.380;2023-06-14T06:02:37;25.30;38.60
8666;DHT22;4370;48.916;8.380;2023-06-14T06:05:02;26.40;36.90
8666;DHT22;4370;48.916;8.380;2023-06-14T06:07:28;27.40;34.70
8666;DHT22;4370;48.916;8.380;2023-06-14T06:09:54;28.20;33.10
8666;DHT22;4370;48.916;8.380;2023-06-14T06:12:19;29.00;31.90
8666;DHT22;4370;48.916;8.380;2023-06-14T06:14:45;29.60;30.70
8666;DHT22;4370;48.916;8.380;2023-06-14T06:17:11;30.30;29.90
8666;DHT22;4370;48.916;8.380;2023-06-14T06:19:36;31.00;28.90
8666;DHT22;4370;48.916;8.380;2023-06-14T06:22:02;31.50;28.50
8666;DHT22;4370;48.916;8.380;2023-06-14T06:24:31;31.90;27.70
8666;DHT22;4370;48.916;8.380;2023-06-14T06:26:57;32.20;27.40
8666;DHT22;4370;48.916;8.380;2023-06-14T06:29:22;32.50;27.30
8666;DHT22;4370;48.916;8.380;2023-06-14T06:31:48;33.50;41.30
8666;DHT22;4370;48.916;8.380;2023-06-14T06:34:13;33.30;26.50
8666;DHT22;4370;48.916;8.380;2023-06-14T06:36:39;33.70;26.20
8666;DHT22;4370;48.916;8.380;2023-06-14T06:39:05;34.00;26.00
8666;DHT22;4370;48.916;8.380;2023-06-14T06:41:36;34.60;25.80
8666;DHT22;4370;48.916;8.380;2023-06-14T06:44:02;35.10;25.30
8666;DHT22;4370;48.916;8.380;2023-06-14T06:46:28;35.30;25.00
8666;DHT22;4370;48.916;8.380;2023-06-14T06:48:53;35.60;24.30
8666;DHT22;4370;48.916;8.380;2023-06-14T06:51:20;35.60;24.30
8666;DHT22;4370;48.916;8.380;2023-06-14T06:53:52;35.70;24.40
8666;DHT22;4370;48.916;8.380;2023-06-14T06:56:18;35.80;24.10
8666;DHT22;4370;48.916;8.380;2023-06-14T06:58:45;35.70;23.70
8666;DHT22;4370;48.916;8.380;2023-06-14T07:01:11;35.50;24.00
8666;DHT22;4370;48.916;8.380;2023-06-14T07:03:38;35.70;24.60
8666;DHT22;4370;48.916;8.380;2023-06-14T07:06:04;35.60;23.80
8666;DHT22;4370;48.916;8.380;2023-06-14T07:08:29;35.50;23.80
8666;DHT22;4370;48.916;8.380;2023-06-14T07:10:55;35.40;23.90
8666;DHT22;4370;48.916;8.380;2023-06-14T07:13:21;35.50;23.70
8666;DHT22;4370;48.916;8.380;2023-06-14T07:15:48;35.40;23.80
8666;DHT22;4370;48.916;8.380;2023-06-14T07:18:13;35.30;23.90
8666;DHT22;4370;48.916;8.380;2023-06-14T07:20:39;35.60;24.30
8666;DHT22;4370;48.916;8.380;2023-06-14T07:25:31;36.00;22.80
8666;DHT22;4370;48.916;8.380;2023-06-14T07:27:57;36.00;23.60
8666;DHT22;4370;48.916;8.380;2023-06-14T07:30:22;35.80;23.00
8666;DHT22;4370;48.916;8.380;2023-06-14T07:32:51;35.80;23.10
8666;DHT22;4370;48.916;8.380;2023-06-14T07:35:17;35.60;23.40
8666;DHT22;4370;48.916;8.380;2023-06-14T07:37:43;35.40;23.40
8666;DHT22;4370;48.916;8.380;2023-06-14T07:40:09;35.20;23.70
8666;DHT22;4370;48.916;8.380;2023-06-14T07:42:35;35.10;24.30
8666;DHT22;4370;48.916;8.380;2023-06-14T07:45:02;35.40;23.90
8666;DHT22;4370;48.916;8.380;2023-06-14T07:47:28;35.80;23.40
8666;DHT22;4370;48.916;8.380;2023-06-14T07:49:53;35.90;23.90
8666;DHT22;4370;48.916;8.380;2023-06-14T07:52:19;36.00;23.60
8666;DHT22;4370;48.916;8.380;2023-06-14T07:54:45;36.00;23.80
8666;DHT22;4370;48.916;8.380;2023-06-14T07:57:10;36.30;23.30
8666;DHT22;4370;48.916;8.380;2023-06-14T07:59:36;36.50;23.40
8666;DHT22;4370;48.916;8.380;2023-06-14T08:02:02;36.70;23.30
8666;DHT22;4370;48.916;8.380;2023-06-14T08:04:27;36.60;23.10
8666;DHT22;4370;48.916;8.380;2023-06-14T08:06:53;36.60;23.20
8666;DHT22;4370;48.916;8.380;2023-06-14T08:09:19;36.40;23.30
8666;DHT22;4370;48.916;8.380;2023-06-14T08:11:45;36.40;37.50
8666;DHT22;4370;48.916;8.380;2023-06-14T08:14:10;36.70;23.60
8666;DHT22;4370;48.916;8.380;2023-06-14T08:16:36;36.70;23.40
8666;DHT22;4370;48.916;8.380;2023-06-14T08:19:02;36.60;22.50
8666;DHT22;4370;48.916;8.380;2023-06-14T08:21:28;36.40;22.90
8666;DHT22;4370;48.916;8.380;2023-06-14T08:23:55;36.10;23.20
8666;DHT22;4370;48.916;8.380;2023-06-14T08:26:21;35.40;23.20
8666;DHT22;4370;48.916;8.380;2023-06-14T08:28:47;34.20;24.40
8666;DHT22;4370;48.916;8.380;2023-06-14T08:31:13;32.60;25.50
8666;DHT22;4370;48.916;8.380;2023-06-14T08:33:39;31.10;27.10
8666;DHT22;4370;48.916;8.380;2023-06-14T08:36:08;29.70;28.60
8666;DHT22;4370;48.916;8.380;2023-06-14T08:38:34;28.70;29.80
8666;DHT22;4370;48.916;8.380;2023-06-14T08:41:01;27.80;30.30
8666;DHT22;4370;48.916;8.380;2023-06-14T08:43:27;27.50;30.60
8666;DHT22;4370;48.916;8.380;2023-06-14T08:46:03;27.80;35.10
8666;DHT22;4370;48.916;8.380;2023-06-14T08:48:30;26.40;37.30
8666;DHT22;4370;48.916;8.380;2023-06-14T08:51:00;26.70;43.70
8666;DHT22;4370;48.916;8.380;2023-06-14T08:53:32;25.50;34.10
8666;DHT22;4370;48.916;8.380;2023-06-14T08:55:59;25.20;35.10
8666;DHT22;4370;48.916;8.380;2023-06-14T08:58:33;25.40;34.80
8666;DHT22;4370;48.916;8.380;2023-06-14T09:01:01;24.90;34.90
8666;DHT22;4370;48.916;8.380;2023-06-14T09:03:26;25.10;35.50
8666;DHT22;4370;48.916;8.380;2023-06-14T09:05:59;25.60;36.00
8666;DHT22;4370;48.916;8.380;2023-06-14T09:08:26;24.90;36.50
8666;DHT22;4370;48.916;8.380;2023-06-14T09:10:52;24.90;36.40
8666;DHT22;4370;48.916;8.380;2023-06-14T09:13:20;24.50;35.50
8666;DHT22;4370;48.916;8.380;2023-06-14T09:15:45;24.30;35.50
8666;DHT22;4370;48.916;8.380;2023-06-14T09:18:11;25.30;36.70
8666;DHT22;4370;48.916;8.380;2023-06-14T09:20:37;24.50;35.60
8666;DHT22;4370;48.916;8.380;2023-06-14T09:23:02;24.40;35.70
8666;DHT22;4370;48.916;8.380;2023-06-14T09:25:30;24.10;35.20
8666;DHT22;4370;48.916;8.380;2023-06-14T09:27:56;25.10;36.20
8666;DHT22;4370;48.916;8.380;2023-06-14T09:30:22;24.60;36.50
8666;DHT22;4370;48.916;8.380;2023-06-14T09:32:48;24.30;36.20
8666;DHT22;4370;48.916;8.380;2023-06-14T09:35:17;23.80;36.10
8666;DHT22;4370;48.916;8.380;2023-06-14T09:37:43;23.80;35.90
8666;DHT22;4370;48.916;8.380;2023-06-14T09:40:10;24.00;35.80
8666;DHT22;4370;48.916;8.380;2023-06-14T09:42:38;24.00;36.20
8666;DHT22;4370;48.916;8.380;2023-06-14T09:45:05;24.00;36.00
8666;DHT22;4370;48.916;8.380;2023-06-14T09:47:31;23.50;35.20
8666;DHT22;4370;48.916;8.380;2023-06-14T09:49:57;23.90;35.20
8666;DHT22;4370;48.916;8.380;2023-06-14T09:52:26;24.00;35.80
8666;DHT22;4370;48.916;8.380;2023-06-14T09:54:52;23.80;35.40
8666;DHT22;4370;48.916;8.380;2023-06-14T09:57:23;24.00;34.70
8666;DHT22;4370;48.916;8.380;2023-06-14T09:59:57;24.10;35.70
8666;DHT22;4370;48.916;8.380;2023-06-14T10:05:09;24.20;36.00
8666;DHT22;4370;48.916;8.380;2023-06-14T10:10:24;24.40;36.30
8666;DHT22;4370;48.916;8.380;2023-06-14T10:12:50;24.70;36.30
8666;DHT22;4370;48.916;8.380;2023-06-14T10:18:11;24.60;35.60
8666;DHT22;4370;48.916;8.380;2023-06-14T10:23:41;24.60;36.10
8666;DHT22;4370;48.916;8.380;2023-06-14T10:26:13;24.40;35.10
8666;DHT22;4370;48.916;8.380;2023-06-14T10:31:43;24.60;34.70
8666;DHT22;4370;48.916;8.380;2023-06-14T10:34:12;24.30;34.40
8666;DHT22;4370;48.916;8.380;2023-06-14T10:36:42;24.40;32.80
8666;DHT22;4370;48.916;8.380;2023-06-14T10:39:16;24.60;32.90
8666;DHT22;4370;48.916;8.380;2023-06-14T10:41:50;24.40;56.10
8666;DHT22;4370;48.916;8.380;2023-06-14T10:46:55;24.40;34.60
8666;DHT22;4370;48.916;8.380;2023-06-14T10:49:37;24.60;31.60
8666;DHT22;4370;48.916;8.380;2023-06-14T10:52:15;24.90;32.00
8666;DHT22;4370;48.916;8.380;2023-06-14T10:55:04;25.40;33.50
8666;DHT22;4370;48.916;8.380;2023-06-14T10:57:34;24.60;33.50
8666;DHT22;4370;48.916;8.380;2023-06-14T11:00:03;24.60;34.00
8666;DHT22;4370;48.916;8.380;2023-06-14T11:05:27;24.90;33.00
8666;DHT22;4370;48.916;8.380;2023-06-14T11:10:41;25.10;33.90
8666;DHT22;4370;48.916;8.380;2023-06-14T11:13:08;26.10;34.00
8666;DHT22;4370;48.916;8.380;2023-06-14T11:15:35;25.00;33.50
8666;DHT22;4370;48.916;8.380;2023-06-14T11:18:07;25.10;34.10
8666;DHT22;4370;48.916;8.380;2023-06-14T11:20:35;25.20;32.80
8666;DHT22;4370;48.916;8.380;2023-06-14T11:23:01;25.20;32.60
8666;DHT22;4370;48.916;8.380;2023-06-14T11:25:27;25.80;32.90
8666;DHT22;4370;48.916;8.380;2023-06-14T11:27:56;24.90;32.40
8666;DHT22;4370;48.916;8.380;2023-06-14T11:30:24;24.90;32.40
8666;DHT22;4370;48.916;8.380;2023-06-14T11:32:52;24.90;32.30
8666;DHT22;4370;48.916;8.380;2023-06-14T11:35:22;24.80;32.20
8666;DHT22;4370;48.916;8.380;2023-06-14T11:37:49;24.70;31.60
8666;DHT22;4370;48.916;8.380;2023-06-14T11:40:17;24.80;31.70
8666;DHT22;4370;48.916;8.380;2023-06-14T11:42:43;25.30;32.40
8666;DHT22;4370;48.916;8.380;2023-06-14T11:45:11;24.70;32.00
8666;DHT22;4370;48.916;8.380;2023-06-14T11:47:39;24.90;32.00
8666;DHT22;4370;48.916;8.380;2023-06-14T11:50:07;25.10;33.00
8666;DHT22;4370;48.916;8.380;2023-06-14T11:52:34;24.90;33.00
8666;DHT22;4370;48.916;8.380;2023-06-14T11:55:00;24.90;33.90
8666;DHT22;4370;48.916;8.380;2023-06-14T11:57:26;25.10;33.60
8666;DHT22;4370;48.916;8.380;2023-06-14T11:59:51;25.30;33.10
8666;DHT22;4370;48.916;8.380;2023-06-14T12:02:19;25.60;32.90
8666;DHT22;4370;48.916;8.380;2023-06-14T12:04:47;26.10;32.80
8666;DHT22;4370;48.916;8.380;2023-06-14T12:07:17;26.40;33.00
8666;DHT22;4370;48.916;8.380;2023-06-14T12:12:26;26.20;32.10
8666;DHT22;4370;48.916;8.380;2023-06-14T12:14:55;26.50;31.80
8666;DHT22;4370;48.916;8.380;2023-06-14T12:17:22;26.40;31.10
8666;DHT22;4370;48.916;8.380;2023-06-14T12:19:49;26.20;32.00
8666;DHT22;4370;48.916;8.380;2023-06-14T12:22:16;26.20;31.80
8666;DHT22;4370;48.916;8.380;2023-06-14T12:24:47;26.60;31.40
8666;DHT22;4370;48.916;8.380;2023-06-14T12:27:15;26.60;30.80
8666;DHT22;4370;48.916;8.380;2023-06-14T12:29:42;26.60;30.10
8666;DHT22;4370;48.916;8.380;2023-06-14T12:32:11;27.10;31.70
8666;DHT22;4370;48.916;8.380;2023-06-14T12:34:37;26.70;30.10
8666;DHT22;4370;48.916;8.380;2023-06-14T12:37:03;27.10;31.50
8666;DHT22;4370;48.916;8.380;2023-06-14T12:39:32;26.70;32.00
8666;DHT22;4370;48.916;8.380;2023-06-14T12:41:58;26.00;54.10
8666;DHT22;4370;48.916;8.380;2023-06-14T12:44:23;26.20;32.00
8666;DHT22;4370;48.916;8.380;2023-06-14T12:46:49;26.00;32.50
8666;DHT22;4370;48.916;8.380;2023-06-14T12:49:17;26.50;34.00
8666;DHT22;4370;48.916;8.380;2023-06-14T12:51:43;25.80;54.50
8666;DHT22;4370;48.916;8.380;2023-06-14T12:54:08;25.60;33.50
8666;DHT22;4370;48.916;8.380;2023-06-14T12:56:34;25.70;33.40
8666;DHT22;4370;48.916;8.380;2023-06-14T12:59:00;25.60;33.70
8666;DHT22;4370;48.916;8.380;2023-06-14T13:01:26;25.90;33.80
8666;DHT22;4370;48.916;8.380;2023-06-14T13:03:51;25.70;33.40
8666;DHT22;4370;48.916;8.380;2023-06-14T13:06:24;25.90;33.70
8666;DHT22;4370;48.916;8.380;2023-06-14T13:08:50;25.80;33.90
8666;DHT22;4370;48.916;8.380;2023-06-14T13:11:16;25.70;33.90
8666;DHT22;4370;48.916;8.380;2023-06-14T13:13:41;25.90;33.80
8666;DHT22;4370;48.916;8.380;2023-06-14T13:16:07;26.40;34.20
8666;DHT22;4370;48.916;8.380;2023-06-14T13:18:33;26.30;34.10
8666;DHT22;4370;48.916;8.380;2023-06-14T13:20:59;25.70;34.40
8666;DHT22;4370;48.916;8.380;2023-06-14T13:23:25;25.80;34.20
8666;DHT22;4370;48.916;8.380;2023-06-14T13:25:50;25.70;34.50
8666;DHT22;4370;48.916;8.380;2023-06-14T13:28:16;26.00;34.10
8666;DHT22;4370;48.916;8.380;2023-06-14T13:30:42;25.60;33.20
8666;DHT22;4370;48.916;8.380;2023-06-14T13:33:09;26.30;35.00
8666;DHT22;4370;48.916;8.380;2023-06-14T13:35:35;25.40;34.50
8666;DHT22;4370;48.916;8.380;2023-06-14T13:38:01;25.40;34.40
8666;DHT22;4370;48.916;8.380;2023-06-14T13:40:26;25.30;35.00
8666;DHT22;4370;48.916;8.380;2023-06-14T13:42:52;26.00;34.40
8666;DHT22;4370;48.916;8.380;2023-06-14T13:45:18;24.90;33.00
8666;DHT22;4370;48.916;8.380;2023-06-14T13:47:43;25.30;33.90
8666;DHT22;4370;48.916;8.380;2023-06-14T13:50:09;25.90;34.70
8666;DHT22;4370;48.916;8.380;2023-06-14T13:52:35;25.60;33.90
8666;DHT22;4370;48.916;8.380;2023-06-14T13:55:00;26.10;34.60
8666;DHT22;4370;48.916;8.380;2023-06-14T13:57:26;25.60;33.00
8666;DHT22;4370;48.916;8.380;2023-06-14T13:59:51;25.50;32.90
8666;DHT22;4370;48.916;8.380;2023-06-14T14:02:20;25.20;32.80
8666;DHT22;4370;48.916;8.380;2023-06-14T14:04:46;24.90;33.90
8666;DHT22;4370;48.916;8.380;2023-06-14T14:07:17;24.90;34.90
8666;DHT22;4370;48.916;8.380;2023-06-14T14:09:43;25.10;35.10
8666;DHT22;4370;48.916;8.380;2023-06-14T14:12:10;25.10;34.30
8666;DHT22;4370;48.916;8.380;2023-06-14T14:14:36;24.60;33.80
8666;DHT22;4370;48.916;8.380;2023-06-14T14:17:02;25.10;34.40
8666;DHT22;4370;48.916;8.380;2023-06-14T14:19:28;25.00;34.40
8666;DHT22;4370;48.916;8.380;2023-06-14T14:21:53;25.20;56.20
8666;DHT22;4370;48.916;8.380;2023-06-14T14:24:19;24.90;33.90
8666;DHT22;4370;48.916;8.380;2023-06-14T14:26:45;25.90;33.40
8666;DHT22;4370;48.916;8.380;2023-06-14T14:29:14;25.00;32.50
8666;DHT22;4370;48.916;8.380;2023-06-14T14:31:39;24.90;54.60
8666;DHT22;4370;48.916;8.380;2023-06-14T14:34:05;24.70;33.20
8666;DHT22;4370;48.916;8.380;2023-06-14T14:36:31;25.30;33.10
8666;DHT22;4370;48.916;8.380;2023-06-14T14:38:56;24.60;32.70
8666;DHT22;4370;48.916;8.380;2023-06-14T14:41:22;24.70;32.50
8666;DHT22;4370;48.916;8.380;2023-06-14T14:43:47;25.20;32.90
8666;DHT22;4370;48.916;8.380;2023-06-14T14:48:39;24.80;32.20
8666;DHT22;4370;48.916;8.380;2023-06-14T14:51:05;24.70;33.00
8666;DHT22;4370;48.916;8.380;2023-06-14T14:53:32;24.90;33.10
8666;DHT22;4370;48.916;8.380;2023-06-14T14:55:58;25.00;32.60
8666;DHT22;4370;48.916;8.380;2023-06-14T14:58:24;25.40;33.20
8666;DHT22;4370;48.916;8.380;2023-06-14T15:00:50;25.60;32.70
8666;DHT22;4370;48.916;8.380;2023-06-14T15:03:15;25.30;32.70
8666;DHT22;4370;48.916;8.380;2023-06-14T15:05:41;24.80;32.10
8666;DHT22;4370;48.916;8.380;2023-06-14T15:08:07;25.00;31.90
8666;DHT22;4370;48.916;8.380;2023-06-14T15:10:38;24.80;31.70
8666;DHT22;4370;48.916;8.380;2023-06-14T15:13:05;24.90;31.80
8666;DHT22;4370;48.916;8.380;2023-06-14T15:15:31;23.30;30.30
8666;DHT22;4370;48.916;8.380;2023-06-14T15:17:56;24.70;32.00
8666;DHT22;4370;48.916;8.380;2023-06-14T15:20:22;24.80;32.80
8666;DHT22;4370;48.916;8.380;2023-06-14T15:22:48;24.90;32.30
8666;DHT22;4370;48.916;8.380;2023-06-14T15:25:13;25.10;32.10
8666;DHT22;4370;48.916;8.380;2023-06-14T15:27:40;24.90;30.70
8666;DHT22;4370;48.916;8.380;2023-06-14T15:30:06;24.60;30.60
8666;DHT22;4370;48.916;8.380;2023-06-14T15:32:33;24.90;32.00
8666;DHT22;4370;48.916;8.380;2023-06-14T15:34:59;24.80;31.70
8666;DHT22;4370;48.916;8.380;2023-06-14T15:37:25;24.60;32.00
8666;DHT22;4370;48.916;8.380;2023-06-14T15:39:50;24.80;32.80
8666;DHT22;4370;48.916;8.380;2023-06-14T15:42:16;24.50;32.30
8666;DHT22;4370;48.916;8.380;2023-06-14T15:44:41;24.80;32.10
8666;DHT22;4370;48.916;8.380;2023-06-14T15:47:08;24.60;32.00
8666;DHT22;4370;48.916;8.380;2023-06-14T15:49:33;24.90;31.60
8666;DHT22;4370;48.916;8.380;2023-06-14T15:51:59;25.30;31.80
8666;DHT22;4370;48.916;8.380;2023-06-14T15:54:26;24.70;32.10
8666;DHT22;4370;48.916;8.380;2023-06-14T15:56:52;25.20;32.10
8666;DHT22;4370;48.916;8.380;2023-06-14T15:59:18;24.70;31.50
8666;DHT22;4370;48.916;8.380;2023-06-14T16:01:44;24.80;53.70
8666;DHT22;4370;48.916;8.380;2023-06-14T16:04:10;25.20;32.70
8666;DHT22;4370;48.916;8.380;2023-06-14T16:06:36;25.60;32.40
8666;DHT22;4370;48.916;8.380;2023-06-14T16:09:03;24.70;31.80
8666;DHT22;4370;48.916;8.380;2023-06-14T16:11:29;24.60;32.10
8666;DHT22;4370;48.916;8.380;2023-06-14T16:13:56;25.70;32.90
8666;DHT22;4370;48.916;8.380;2023-06-14T16:16:24;24.80;31.40
8666;DHT22;4370;48.916;8.380;2023-06-14T16:18:51;24.80;32.00
8666;DHT22;4370;48.916;8.380;2023-06-14T16:21:17;25.00;32.00
8666;DHT22;4370;48.916;8.380;2023-06-14T16:23:42;24.70;53.50
8666;DHT22;4370;48.916;8.380;2023-06-14T16:26:10;24.60;32.00
8666;DHT22;4370;48.916;8.380;2023-06-14T16:28:40;24.60;32.00
8666;DHT22;4370;48.916;8.380;2023-06-14T16:31:11;24.50;31.80
8666;DHT22;4370;48.916;8.380;2023-06-14T16:33:39;24.80;32.20
8666;DHT22;4370;48.916;8.380;2023-06-14T16:36:05;24.30;31.70
8666;DHT22;4370;48.916;8.380;2023-06-14T16:38:31;25.00;32.50
8666;DHT22;4370;48.916;8.380;2023-06-14T16:40:57;24.70;35.20
8666;DHT22;4370;48.916;8.380;2023-06-14T16:43:23;25.40;35.30
8666;DHT22;4370;48.916;8.380;2023-06-14T16:45:49;24.80;34.80
8666;DHT22;4370;48.916;8.380;2023-06-14T16:48:14;24.50;35.30
8666;DHT22;4370;48.916;8.380;2023-06-14T16:50:40;25.30;36.10
8666;DHT22;4370;48.916;8.380;2023-06-14T16:53:09;24.40;35.70
8666;DHT22;4370;48.916;8.380;2023-06-14T16:55:34;24.40;32.70
8666;DHT22;4370;48.916;8.380;2023-06-14T16:58:01;24.90;36.60
8666;DHT22;4370;48.916;8.380;2023-06-14T17:00:28;24.80;36.60
8666;DHT22;4370;48.916;8.380;2023-06-14T17:02:54;24.90;37.20
8666;DHT22;4370;48.916;8.380;2023-06-14T17:05:20;24.50;37.60